Time;durP1;ratioP1;P1;durP2;ratioP2;P2;SDS_P1;SDS_P2;PMS_P1;PMS_P2;Temp;Humidity;BMP_temperature;BMP_pressure;BME280_temperature;BME280_humidity;BME280_pressure;Samples;Min_cycle;Max_cycle;Signal;HPM_P1;HPM_P2
2023/06/01 00:00:29;;;;;;;8.18;4.30;;;;;;;;;;6307885;22;20007;-92
2023/06/01 00:02:59;;;;;;;19.48;5.43;;;;;;;;;;6308105;22;20010;-91
2023/06/01 00:05:26;;;;;;;12.90;4.68;;;;;;;;;;6308253;22;20014;-91
2023/06/01 00:07:59;;;;;;;11.73;4.53;;;;;;;;;;6308738;22;20014;-92
2023/06/01 00:10:25;;;;;;;23.98;5.10;;;;;;;;;;6305940;22;20018;-92
2023/06/01 00:12:52;;;;;;;14.52;4.65;;;;;;;;;;6305632;22;20435;-93
2023/06/01 00:15:18;;;;;;;11.80;4.15;;;;;;;;;;6308212;22;20006;-92
2023/06/01 00:17:44;;;;;;;16.25;4.43;;;;;;;;;;6308852;22;20419;-92
2023/06/01 00:20:10;;;;;;;11.93;4.47;;;;;;;;;;6306965;22;20348;-93
2023/06/01 00:22:43;;;;;;;16.05;4.60;;;;;;;;;;6334669;22;20013;-92
2023/06/01 00:25:09;;;;;;;19.27;4.22;;;;;;;;;;6309658;22;20033;-92
2023/06/01 00:27:36;;;;;;;14.68;4.40;;;;;;;;;;6332927;22;20007;-92
2023/06/01 00:30:02;;;;;;;12.35;4.38;;;;;;;;;;6306501;22;20011;-92
2023/06/01 00:32:29;;;;;;;12.63;4.35;;;;;;;;;;6333761;22;19998;-92
2023/06/01 00:34:55;;;;;;;10.68;3.97;;;;;;;;;;6334494;22;20007;-91
2023/06/01 00:37:21;;;;;;;11.32;4.60;;;;;;;;;;6334385;22;20011;-92
2023/06/01 00:39:47;;;;;;;11.27;4.80;;;;;;;;;;6308975;22;20471;-92
2023/06/01 00:42:14;;;;;;;10.05;4.50;;;;;;;;;;6308837;22;20383;-93
2023/06/01 00:44:40;;;;;;;14.20;4.68;;;;;;;;;;6308496;22;20452;-92
2023/06/01 00:47:19;;;;;;;14.02;4.45;;;;;;;;;;6337470;22;20011;-93
2023/06/01 00:49:46;;;;;;;10.25;4.25;;;;;;;;;;6336157;22;20007;-92
2023/06/01 00:52:13;;;;;;;15.57;4.47;;;;;;;;;;6337544;22;20002;-91
2023/06/01 00:54:40;;;;;;;12.93;4.63;;;;;;;;;;6338761;22;20010;-91
2023/06/01 00:57:06;;;;;;;13.18;4.57;;;;;;;;;;6311385;22;20007;-92
2023/06/01 00:59:33;;;;;;;13.20;4.57;;;;;;;;;;6338230;22;20088;-90
2023/06/01 01:01:59;;;;;;;11.70;4.78;;;;;;;;;;6312361;22;20017;-92
2023/06/01 01:04:26;;;;;;;10.73;3.78;;;;;;;;;;6312966;22;20344;-92
2023/06/01 01:07:00;;;;;;;14.63;4.65;;;;;;;;;;6312081;22;20481;-92
2023/06/01 01:09:42;;;;;;;14.38;4.80;;;;;;;;;;6338671;22;20024;-91
2023/06/01 01:12:29;;;;;;;18.08;6.20;;;;;;;;;;6337172;22;20125;-92
2023/06/01 01:15:00;;;;;;;20.50;4.28;;;;;;;;;;6276600;22;20085;-89
2023/06/01 01:17:56;;;;;;;17.33;4.70;;;;;;;;;;6338285;22;20005;-92
2023/06/01 01:20:29;;;;;;;16.90;6.55;;;;;;;;;;6306474;22;20158;-90
2023/06/01 01:23:12;;;;;;;17.45;4.93;;;;;;;;;;6337667;22;20426;-92
2023/06/01 01:25:56;;;;;;;10.07;4.75;;;;;;;;;;6336651;22;20060;-93
2023/06/01 01:28:23;;;;;;;13.82;4.65;;;;;;;;;;6337453;22;20003;-92
2023/06/01 01:30:51;;;;;;;13.77;4.85;;;;;;;;;;6337101;22;20003;-92
2023/06/01 01:33:18;;;;;;;14.63;4.50;;;;;;;;;;6337371;22;20007;-92
2023/06/01 01:35:52;;;;;;;11.90;4.80;;;;;;;;;;6335050;22;20042;-92
2023/06/01 01:38:19;;;;;;;19.35;4.93;;;;;;;;;;6336954;22;20414;-91
2023/06/01 01:40:45;;;;;;;16.33;4.97;;;;;;;;;;6310499;22;20007;-91
2023/06/01 01:43:15;;;;;;;23.58;5.45;;;;;;;;;;6335781;22;20336;-91
2023/06/01 01:45:46;;;;;;;11.95;4.45;;;;;;;;;;6309291;22;20095;-92
2023/06/01 01:48:24;;;;;;;17.58;4.53;;;;;;;;;;6312162;22;20049;-92
2023/06/01 01:53:39;;;;;;;15.10;5.50;;;;;;;;;;6315195;22;20377;-92
2023/06/01 01:56:08;;;;;;;17.67;4.00;;;;;;;;;;6334631;22;20002;-91
2023/06/01 01:58:35;;;;;;;11.88;5.60;;;;;;;;;;6335848;22;20010;-91
2023/06/01 02:03:46;;;;;;;7.75;3.60;;;;;;;;;;6338942;22;20092;-91
2023/06/01 02:06:12;;;;;;;12.68;4.10;;;;;;;;;;6309490;22;20006;-91
2023/06/01 02:08:39;;;;;;;12.07;4.32;;;;;;;;;;6335947;22;20030;-92
2023/06/01 02:11:06;;;;;;;12.35;4.10;;;;;;;;;;6309342;22;20391;-92
2023/06/01 02:13:32;;;;;;;8.30;3.45;;;;;;;;;;6308572;22;20011;-92
2023/06/01 02:15:58;;;;;;;8.38;3.25;;;;;;;;;;6309379;22;20007;-93
2023/06/01 02:18:25;;;;;;;10.30;3.83;;;;;;;;;;6311410;22;20017;-92
2023/06/01 02:20:51;;;;;;;6.88;3.25;;;;;;;;;;6336889;22;20446;-92
2023/06/01 02:23:27;;;;;;;10.52;3.30;;;;;;;;;;6338120;22;20010;-92
2023/06/01 02:25:57;;;;;;;20.40;5.63;;;;;;;;;;6313176;22;20035;-92
2023/06/01 02:28:23;;;;;;;10.32;3.72;;;;;;;;;;6313714;22;20130;-93
2023/06/01 02:30:49;;;;;;;12.57;3.38;;;;;;;;;;6312007;22;20010;-93
2023/06/01 02:33:18;;;;;;;11.05;3.28;;;;;;;;;;6311917;22;20006;-92
2023/06/01 02:35:45;;;;;;;11.75;3.45;;;;;;;;;;6312162;22;20098;-93
2023/06/01 02:38:14;;;;;;;10.05;3.10;;;;;;;;;;6338048;22;20003;-92
2023/06/01 02:40:40;;;;;;;10.27;3.42;;;;;;;;;;6311051;22;20412;-92
2023/06/01 02:43:06;;;;;;;6.40;2.85;;;;;;;;;;6311214;22;20007;-91
2023/06/01 02:45:33;;;;;;;7.65;3.10;;;;;;;;;;6308206;22;20056;-92
2023/06/01 02:48:05;;;;;;;12.57;3.47;;;;;;;;;;6338473;22;20015;-93
2023/06/01 02:50:34;;;;;;;9.43;3.50;;;;;;;;;;6340519;22;20011;-93
2023/06/01 02:53:01;;;;;;;10.30;3.38;;;;;;;;;;6311305;22;20060;-92
2023/06/01 02:55:27;;;;;;;14.52;3.63;;;;;;;;;;6311391;22;20011;-92
2023/06/01 02:58:03;;;;;;;4.78;2.95;;;;;;;;;;6311043;22;20026;-93
2023/06/01 03:00:30;;;;;;;10.45;3.67;;;;;;;;;;6312166;22;20021;-91
2023/06/01 03:02:59;;;;;;;13.77;3.65;;;;;;;;;;6311165;22;20436;-91
2023/06/01 03:05:29;;;;;;;15.77;3.80;;;;;;;;;;6311049;22;20017;-92
2023/06/01 03:07:56;;;;;;;6.88;3.00;;;;;;;;;;6310593;22;20007;-92
2023/06/01 03:10:22;;;;;;;12.07;3.80;;;;;;;;;;6336729;22;20002;-92
2023/06/01 03:12:51;;;;;;;12.10;3.33;;;;;;;;;;6310113;22;20041;-92
2023/06/01 03:15:17;;;;;;;11.77;3.63;;;;;;;;;;6308615;22;20011;-92
2023/06/01 03:17:44;;;;;;;16.58;4.97;;;;;;;;;;6310811;22;20041;-93
2023/06/01 03:20:17;;;;;;;7.43;4.10;;;;;;;;;;6335839;22;20014;-92
2023/06/01 03:25:38;;;;;;;7.78;4.00;;;;;;;;;;6278149;22;20366;-92
2023/06/01 03:28:07;;;;;;;11.73;4.72;;;;;;;;;;6309204;22;20014;-93
2023/06/01 03:30:46;;;;;;;13.23;4.40;;;;;;;;;;6307869;22;20475;-92
2023/06/01 03:33:19;;;;;;;16.75;4.28;;;;;;;;;;6309306;22;20065;-92
2023/06/01 03:35:45;;;;;;;14.15;4.10;;;;;;;;;;6334383;22;20272;-92
2023/06/01 03:38:14;;;;;;;18.30;4.28;;;;;;;;;;6308775;22;20011;-92
2023/06/01 03:40:43;;;;;;;20.30;4.50;;;;;;;;;;6309880;22;20537;-92
2023/06/01 03:43:20;;;;;;;11.65;4.63;;;;;;;;;;6308186;22;20018;-92
2023/06/01 03:45:46;;;;;;;14.18;4.60;;;;;;;;;;6334328;22;20055;-92
2023/06/01 03:48:16;;;;;;;21.85;4.57;;;;;;;;;;6334705;22;20023;-92
2023/06/01 03:50:42;;;;;;;15.35;5.45;;;;;;;;;;6334414;22;20898;-92
2023/06/01 03:53:08;;;;;;;15.75;3.70;;;;;;;;;;6334264;22;20003;-93
2023/06/01 03:55:35;;;;;;;11.07;3.55;;;;;;;;;;6308975;22;20010;-92
2023/06/01 03:58:02;;;;;;;11.90;4.00;;;;;;;;;;6308374;22;20015;-92
2023/06/01 04:00:32;;;;;;;12.35;3.88;;;;;;;;;;6334154;22;20066;-93
2023/06/01 04:03:00;;;;;;;13.75;3.92;;;;;;;;;;6333892;22;20013;-92
2023/06/01 04:05:36;;;;;;;10.20;3.35;;;;;;;;;;6308017;22;20007;-92
2023/06/01 04:08:02;;;;;;;;;;;;;;;;;;6332325;22;19999;-92
2023/06/01 04:10:28;;;;;;;9.02;3.65;;;;;;;;;;6334685;22;19902;-92
2023/06/01 04:13:02;;;;;;;14.82;3.83;;;;;;;;;;6306740;22;20029;-91
2023/06/01 04:15:28;;;;;;;12.68;4.00;;;;;;;;;;6307236;22;20014;-92
2023/06/01 04:17:54;;;;;;;15.00;4.13;;;;;;;;;;6307713;22;20326;-92
2023/06/01 04:20:24;;;;;;;16.70;4.38;;;;;;;;;;6309966;22;20007;-91
2023/06/01 04:22:50;;;;;;;15.60;3.92;;;;;;;;;;6337691;22;20006;-92
2023/06/01 04:25:20;;;;;;;9.68;3.88;;;;;;;;;;6310450;22;20014;-92
2023/06/01 04:27:54;;;;;;;8.52;3.97;;;;;;;;;;6311002;22;20029;-92
2023/06/01 04:30:22;;;;;;;14.82;3.75;;;;;;;;;;6309548;22;20030;-92
2023/06/01 04:32:48;;;;;;;9.35;3.55;;;;;;;;;;6335777;22;20014;-93
2023/06/01 04:35:14;;;;;;;12.98;4.85;;;;;;;;;;6310200;22;20037;-93
2023/06/01 04:37:41;;;;;;;6.85;3.03;;;;;;;;;;6336144;22;20351;-92
2023/06/01 04:40:09;;;;;;;10.32;3.05;;;;;;;;;;6336640;22;20017;-92
2023/06/01 04:42:38;;;;;;;13.73;2.70;;;;;;;;;;6335987;22;20451;-92
2023/06/01 04:45:07;;;;;;;6.90;3.38;;;;;;;;;;6335099;22;20037;-92
2023/06/01 04:47:39;;;;;;;11.75;3.28;;;;;;;;;;6306958;22;20345;-93
2023/06/01 04:50:09;;;;;;;10.32;2.75;;;;;;;;;;6278868;22;20003;-92
2023/06/01 04:52:36;;;;;;;10.10;3.95;;;;;;;;;;6278574;22;20003;-92
2023/06/01 04:55:06;;;;;;;9.93;2.95;;;;;;;;;;6278801;22;20007;-93
2023/06/01 04:57:34;;;;;;;11.68;3.90;;;;;;;;;;6276856;22;20023;-91
2023/06/01 05:00:00;;;;;;;17.00;3.50;;;;;;;;;;6275930;22;20033;-90
2023/06/01 05:02:28;;;;;;;10.13;3.08;;;;;;;;;;6253503;22;20064;-90
2023/06/01 05:04:55;;;;;;;10.23;3.50;;;;;;;;;;6278812;22;20006;-91
2023/06/01 05:07:21;;;;;;;10.73;3.05;;;;;;;;;;6252282;22;20086;-91
2023/06/01 05:09:48;;;;;;;5.43;2.78;;;;;;;;;;6254396;22;20007;-92
2023/06/01 05:12:14;;;;;;;11.05;3.30;;;;;;;;;;6275093;22;20035;-90
2023/06/01 05:14:41;;;;;;;8.57;3.00;;;;;;;;;;6252518;22;20019;-91
2023/06/01 05:17:10;;;;;;;7.00;2.63;;;;;;;;;;6276987;22;20011;-91
2023/06/01 05:19:36;;;;;;;11.07;2.90;;;;;;;;;;6303290;22;20011;-91
2023/06/01 05:22:02;;;;;;;9.07;3.00;;;;;;;;;;6276849;22;20015;-90
2023/06/01 05:24:28;;;;;;;12.98;2.90;;;;;;;;;;6302699;22;20110;-91
2023/06/01 05:26:54;;;;;;;8.82;2.85;;;;;;;;;;6278776;22;20011;-92
2023/06/01 05:29:21;;;;;;;11.27;3.20;;;;;;;;;;6302570;22;20063;-91
2023/06/01 05:31:47;;;;;;;8.93;2.92;;;;;;;;;;6301273;22;20864;-90
2023/06/01 05:34:14;;;;;;;10.57;3.40;;;;;;;;;;6300470;22;20445;-91
2023/06/01 05:36:41;;;;;;;12.35;4.03;;;;;;;;;;6301769;22;20508;-91
2023/06/01 05:39:14;;;;;;;9.85;3.47;;;;;;;;;;6302385;22;20003;-90
2023/06/01 05:41:41;;;;;;;20.85;4.95;;;;;;;;;;6302506;22;20076;-90
2023/06/01 05:44:07;;;;;;;13.77;4.63;;;;;;;;;;6302423;22;20284;-90
2023/06/01 05:46:40;;;;;;;10.88;3.55;;;;;;;;;;6303405;22;20089;-91
2023/06/01 05:49:06;;;;;;;12.68;3.83;;;;;;;;;;6304872;22;20015;-93
2023/06/01 05:51:36;;;;;;;8.73;3.35;;;;;;;;;;6309368;22;20006;-92
2023/06/01 05:54:03;;;;;;;8.68;3.80;;;;;;;;;;6311707;22;20072;-92
2023/06/01 05:56:29;;;;;;;6.65;2.75;;;;;;;;;;6309197;22;20010;-92
2023/06/01 05:58:59;;;;;;;6.85;3.05;;;;;;;;;;6308788;22;20486;-92
2023/06/01 06:01:27;;;;;;;4.35;2.22;;;;;;;;;;6333970;22;20408;-91
2023/06/01 06:03:53;;;;;;;4.07;2.00;;;;;;;;;;6308767;22;20097;-92
2023/06/01 06:06:30;;;;;;;9.35;2.38;;;;;;;;;;6308501;22;20007;-92
2023/06/01 06:08:56;;;;;;;8.13;2.22;;;;;;;;;;6333754;22;20475;-91
2023/06/01 06:11:26;;;;;;;6.45;2.20;;;;;;;;;;6308979;22;20007;-92
2023/06/01 06:13:55;;;;;;;7.97;2.50;;;;;;;;;;6333290;22;20071;-92
2023/06/01 06:16:21;;;;;;;8.32;2.38;;;;;;;;;;6309338;22;20014;-92
2023/06/01 06:18:47;;;;;;;5.65;2.28;;;;;;;;;;6308522;22;20040;-91
2023/06/01 06:21:16;;;;;;;6.53;2.70;;;;;;;;;;6334293;22;20010;-92
2023/06/01 06:23:49;;;;;;;5.75;2.70;;;;;;;;;;6310325;22;20014;-92
2023/06/01 06:26:16;;;;;;;5.95;2.55;;;;;;;;;;6334892;22;20421;-91
2023/06/01 06:28:42;;;;;;;4.60;2.08;;;;;;;;;;6334530;22;20018;-92
2023/06/01 06:31:08;;;;;;;17.58;2.58;;;;;;;;;;6308086;22;20222;-91
2023/06/01 06:33:36;;;;;;;6.25;2.17;;;;;;;;;;6309613;22;20069;-91
2023/06/01 06:36:02;;;;;;;4.35;2.10;;;;;;;;;;6336057;22;20014;-91
2023/06/01 06:38:28;;;;;;;6.38;2.42;;;;;;;;;;6310970;22;20018;-93
2023/06/01 06:40:57;;;;;;;5.30;2.08;;;;;;;;;;6310920;22;20003;-92
2023/06/01 06:43:23;;;;;;;8.13;1.95;;;;;;;;;;6337720;22;20034;-92
2023/06/01 06:45:49;;;;;;;3.15;1.50;;;;;;;;;;6310248;22;20010;-91
2023/06/01 06:48:22;;;;;;;3.92;1.73;;;;;;;;;;6338989;22;20018;-92
2023/06/01 06:50:57;;;;;;;7.55;2.10;;;;;;;;;;6335824;22;20006;-93
2023/06/01 06:53:23;;;;;;;7.85;2.22;;;;;;;;;;6337035;22;20006;-92
2023/06/01 06:55:49;;;;;;;2.63;1.45;;;;;;;;;;6310919;22;20007;-90
2023/06/01 06:58:15;;;;;;;6.63;2.45;;;;;;;;;;6309830;22;20558;-92
2023/06/01 07:00:42;;;;;;;2.67;1.73;;;;;;;;;;6336354;22;20379;-92
2023/06/01 07:03:08;;;;;;;7.00;2.10;;;;;;;;;;6334613;22;20429;-92
2023/06/01 07:05:39;;;;;;;4.07;2.08;;;;;;;;;;6335301;22;20090;-92
2023/06/01 07:08:06;;;;;;;8.38;1.95;;;;;;;;;;6308953;22;20011;-91
2023/06/01 07:10:32;;;;;;;8.75;2.15;;;;;;;;;;6310532;22;20046;-92
2023/06/01 07:12:59;;;;;;;12.57;2.40;;;;;;;;;;6308023;22;20060;-92
2023/06/01 07:15:32;;;;;;;7.30;2.20;;;;;;;;;;6308970;22;20094;-92
2023/06/01 07:17:59;;;;;;;6.57;2.50;;;;;;;;;;6310466;22;20007;-92
2023/06/01 07:20:25;;;;;;;5.18;2.25;;;;;;;;;;6308165;22;20472;-92
2023/06/01 07:22:52;;;;;;;6.93;2.97;;;;;;;;;;6307952;22;20557;-92
2023/06/01 07:25:21;;;;;;;12.00;3.20;;;;;;;;;;6336468;22;20011;-92
2023/06/01 07:27:55;;;;;;;6.22;2.20;;;;;;;;;;6336017;22;20007;-92
2023/06/01 07:30:33;;;;;;;5.82;2.80;;;;;;;;;;6334165;22;20061;-92
2023/06/01 07:33:07;;;;;;;9.63;2.65;;;;;;;;;;6336215;22;20033;-92
2023/06/01 07:35:33;;;;;;;6.25;2.30;;;;;;;;;;6334480;22;20010;-93
2023/06/01 07:38:00;;;;;;;7.07;2.83;;;;;;;;;;6335019;22;20020;-90
2023/06/01 07:40:26;;;;;;;7.22;2.25;;;;;;;;;;6333132;22;20374;-93
2023/06/01 07:42:52;;;;;;;7.05;3.25;;;;;;;;;;6308922;22;20014;-92
2023/06/01 07:45:18;;;;;;;12.15;2.40;;;;;;;;;;6307644;22;20010;-92
2023/06/01 07:47:45;;;;;;;5.57;2.90;;;;;;;;;;6334734;22;20002;-92
2023/06/01 07:50:11;;;;;;;8.82;3.30;;;;;;;;;;6310199;22;20912;-92
2023/06/01 07:52:47;;;;;;;9.95;3.17;;;;;;;;;;6336051;22;20003;-93
2023/06/01 07:55:15;;;;;;;12.75;2.47;;;;;;;;;;6337169;22;20062;-93
2023/06/01 07:57:46;;;;;;;4.72;2.28;;;;;;;;;;6311583;22;20388;-92
2023/06/01 08:00:12;;;;;;;5.00;1.85;;;;;;;;;;6308768;22;20026;-93
2023/06/01 08:02:40;;;;;;;4.25;2.10;;;;;;;;;;6309409;22;20022;-93
2023/06/01 08:05:14;;;;;;;3.92;1.80;;;;;;;;;;6335238;22;20056;-92
2023/06/01 08:07:42;;;;;;;3.70;1.48;;;;;;;;;;6309343;22;20094;-92
2023/06/01 08:10:10;;;;;;;7.18;1.33;;;;;;;;;;6309688;22;20017;-92
2023/06/01 08:12:36;;;;;;;5.80;2.30;;;;;;;;;;6331916;22;20014;-92
2023/06/01 08:15:03;;;;;;;17.48;5.38;;;;;;;;;;6307886;22;20075;-92
2023/06/01 08:17:30;;;;;;;5.25;1.60;;;;;;;;;;6311366;22;20010;-93
2023/06/01 08:20:23;;;;;;;5.78;1.90;;;;;;;;;;6338817;22;20045;-93
2023/06/01 08:23:03;;;;;;;8.50;2.47;;;;;;;;;;6294501;22;20070;-92
2023/06/01 08:25:32;;;;;;;7.10;2.58;;;;;;;;;;6312845;22;20007;-92
2023/06/01 08:28:11;;;;;;;10.65;2.70;;;;;;;;;;6313284;22;20323;-93
2023/06/01 08:30:37;;;;;;;13.50;3.55;;;;;;;;;;6311956;22;20007;-92
2023/06/01 08:33:28;;;;;;;5.65;2.67;;;;;;;;;;6337315;22;20011;-93
2023/06/01 08:36:16;;;;;;;6.10;3.00;;;;;;;;;;6314730;22;20006;-93
2023/06/01 08:38:42;;;;;;;10.63;3.03;;;;;;;;;;6337244;22;20017;-92
2023/06/01 08:41:37;;;;;;;7.10;2.83;;;;;;;;;;6337577;22;20010;-90
2023/06/01 08:44:10;;;;;;;11.88;3.72;;;;;;;;;;6338365;22;20006;-92
2023/06/01 08:46:48;;;;;;;13.10;4.03;;;;;;;;;;6337699;22;20057;-92
2023/06/01 08:49:14;;;;;;;11.27;3.72;;;;;;;;;;6338823;22;20011;-94
2023/06/01 08:51:41;;;;;;;16.52;4.03;;;;;;;;;;6311585;22;20092;-92
2023/06/01 08:54:29;;;;;;;12.73;3.90;;;;;;;;;;6337660;22;20487;-90
2023/06/01 08:57:02;;;;;;;13.65;3.55;;;;;;;;;;6314676;22;20007;-92
2023/06/01 08:59:39;;;;;;;22.38;3.70;;;;;;;;;;6337460;22;20007;-92
2023/06/01 09:02:09;;;;;;;13.43;3.85;;;;;;;;;;6338529;22;20009;-92
2023/06/01 09:04:44;;;;;;;14.00;3.03;;;;;;;;;;6334856;22;20030;-92
2023/06/01 09:07:10;;;;;;;12.43;3.08;;;;;;;;;;6337022;22;20003;-92
2023/06/01 09:09:39;;;;;;;11.38;2.70;;;;;;;;;;6310367;22;20092;-91
2023/06/01 09:13:10;;;;;;;8.32;2.58;;;;;;;;;;6336044;22;20076;-92
2023/06/01 09:15:25;;;;;;;8.82;1.90;;;;;;;;;;6319240;22;20011;-92
2023/06/01 09:18:14;;;;;;;11.85;2.45;;;;;;;;;;6334638;22;20042;-91
2023/06/01 09:20:44;;;;;;;10.45;2.83;;;;;;;;;;6341203;22;20254;-91
2023/06/01 09:26:15;;;;;;;8.60;2.70;;;;;;;;;;6322062;22;20022;-91
2023/06/01 09:29:02;;;;;;;12.82;2.80;;;;;;;;;;6336317;22;20002;-91
2023/06/01 09:31:28;;;;;;;;;;;;;;;;;;6312049;22;20348;-92
2023/06/01 09:34:01;;;;;;;8.45;2.13;;;;;;;;;;6335965;22;19902;-92
2023/06/01 09:36:30;;;;;;;13.95;2.78;;;;;;;;;;6337602;22;20432;-91
2023/06/01 09:39:07;;;;;;;14.40;2.72;;;;;;;;;;6338028;22;20015;-91
2023/06/01 09:41:58;;;;;;;10.25;2.42;;;;;;;;;;6311770;22;20007;-91
2023/06/01 09:44:33;;;;;;;12.20;2.83;;;;;;;;;;6339757;22;20084;-91
2023/06/01 09:47:21;;;;;;;9.30;2.22;;;;;;;;;;6338728;22;20112;-91
2023/06/01 09:50:16;;;;;;;9.30;2.72;;;;;;;;;;6339832;22;20071;-90
2023/06/01 09:53:07;;;;;;;9.68;2.80;;;;;;;;;;6211481;23;20019;-92
2023/06/01 09:55:34;;;;;;;7.82;3.17;;;;;;;;;;6209714;23;20008;-92
2023/06/01 09:58:22;;;;;;;9.57;2.15;;;;;;;;;;6161099;23;20039;-92
2023/06/01 10:00:49;;;;;;;8.10;2.80;;;;;;;;;;6211248;23;20009;-91
2023/06/01 10:03:16;;;;;;;9.45;4.18;;;;;;;;;;6210757;23;20012;-92
2023/06/01 10:05:44;;;;;;;10.70;2.45;;;;;;;;;;6210337;23;20059;-92
2023/06/01 10:08:15;;;;;;;9.30;2.47;;;;;;;;;;6210109;23;20151;-91
2023/06/01 10:10:43;;;;;;;12.90;2.92;;;;;;;;;;6209617;23;20005;-92
2023/06/01 10:13:10;;;;;;;8.05;2.50;;;;;;;;;;6184726;23;20001;-93
2023/06/01 10:15:36;;;;;;;6.90;2.65;;;;;;;;;;6160634;23;20012;-91
2023/06/01 10:18:03;;;;;;;8.48;2.42;;;;;;;;;;6160534;23;20023;-92
2023/06/01 10:20:32;;;;;;;8.68;3.15;;;;;;;;;;6211596;23;20012;-92
2023/06/01 10:23:00;;;;;;;10.98;3.97;;;;;;;;;;6232000;22;20033;-91
2023/06/01 10:25:29;;;;;;;14.90;2.80;;;;;;;;;;6251213;22;20012;-91
2023/06/01 10:27:58;;;;;;;12.10;3.22;;;;;;;;;;6278478;22;20011;-91
2023/06/01 10:30:24;;;;;;;11.90;3.42;;;;;;;;;;6308039;22;20013;-92
2023/06/01 10:32:50;;;;;;;13.43;3.80;;;;;;;;;;6309491;22;20014;-91
2023/06/01 10:35:29;;;;;;;9.35;3.28;;;;;;;;;;6335247;22;20011;-92
2023/06/01 10:38:14;;;;;;;5.90;2.65;;;;;;;;;;6335857;22;20003;-92
2023/06/01 10:40:59;;;;;;;14.02;2.70;;;;;;;;;;6335527;22;20045;-92
2023/06/01 10:43:38;;;;;;;7.45;2.40;;;;;;;;;;6334845;22;20002;-91
2023/06/01 10:46:25;;;;;;;9.90;3.05;;;;;;;;;;6335819;22;20042;-91
2023/06/01 10:48:53;;;;;;;12.55;2.67;;;;;;;;;;6336806;22;20024;-92
2023/06/01 10:51:32;;;;;;;14.55;2.72;;;;;;;;;;6335401;22;20002;-90
2023/06/01 10:54:16;;;;;;;8.13;2.72;;;;;;;;;;6311245;22;20033;-92
2023/06/01 10:56:44;;;;;;;13.32;2.72;;;;;;;;;;6335311;22;20052;-91
2023/06/01 10:59:22;;;;;;;12.30;2.72;;;;;;;;;;6309878;22;20013;-91
2023/06/01 11:01:48;;;;;;;6.22;2.60;;;;;;;;;;6310866;22;20011;-90
2023/06/01 11:04:15;;;;;;;9.05;2.92;;;;;;;;;;6337770;22;20068;-91
2023/06/01 11:06:43;;;;;;;11.60;2.35;;;;;;;;;;6338768;22;20024;-92
2023/06/01 11:09:16;;;;;;;8.93;2.17;;;;;;;;;;6341922;22;19999;-92
2023/06/01 11:11:50;;;;;;;6.75;2.25;;;;;;;;;;6336665;22;20002;-91
2023/06/01 11:14:23;;;;;;;10.65;3.08;;;;;;;;;;6335804;22;20007;-92
2023/06/01 11:16:50;;;;;;;5.75;2.08;;;;;;;;;;6335948;22;20010;-93
2023/06/01 11:19:40;;;;;;;5.13;2.20;;;;;;;;;;6309435;22;20011;-91
2023/06/01 11:22:07;;;;;;;5.30;2.15;;;;;;;;;;6335195;22;20451;-91
2023/06/01 11:27:33;;;;;;;9.93;2.50;;;;;;;;;;6211018;23;20024;-93
2023/06/01 11:30:03;;;;;;;7.65;2.42;;;;;;;;;;6201239;22;20008;-92
2023/06/01 11:32:48;;;;;;;11.48;2.63;;;;;;;;;;6309687;22;20480;-92
2023/06/01 11:35:17;;;;;;;8.30;3.00;;;;;;;;;;6313383;22;20013;-92
2023/06/01 11:37:43;;;;;;;16.35;4.35;;;;;;;;;;6308724;22;20007;-91
2023/06/01 11:40:10;;;;;;;10.23;2.65;;;;;;;;;;6308450;22;20101;-93
2023/06/01 11:42:39;;;;;;;7.85;2.65;;;;;;;;;;6336558;22;20021;-92
2023/06/01 11:45:06;;;;;;;10.73;2.58;;;;;;;;;;6309672;22;20497;-91
2023/06/01 11:47:33;;;;;;;14.00;3.35;;;;;;;;;;6335660;22;20003;-92
2023/06/01 11:49:59;;;;;;;6.97;3.20;;;;;;;;;;6315765;22;20019;-92
2023/06/01 11:52:44;;;;;;;9.20;2.60;;;;;;;;;;6283118;22;20076;-92
2023/06/01 11:55:52;;;;;;;15.32;3.88;;;;;;;;;;6255346;22;20011;-92
2023/06/01 11:58:33;;;;;;;6.10;2.55;;;;;;;;;;6234284;22;20003;-92
2023/06/01 12:01:04;;;;;;;9.93;3.03;;;;;;;;;;6281636;22;20011;-92
2023/06/01 12:06:35;;;;;;;10.80;3.15;;;;;;;;;;6271194;22;20078;-92
2023/06/01 12:09:02;;;;;;;7.70;2.80;;;;;;;;;;6278156;22;20006;-90
2023/06/01 12:11:29;;;;;;;9.30;2.67;;;;;;;;;;6303979;22;20014;-91
2023/06/01 12:14:22;;;;;;;5.75;2.60;;;;;;;;;;6306084;22;20007;-92
2023/06/01 12:17:07;;;;;;;9.40;2.67;;;;;;;;;;6240000;22;20013;-92
2023/06/01 12:19:48;;;;;;;10.52;3.15;;;;;;;;;;6306302;22;20011;-91
2023/06/01 12:22:18;;;;;;;12.82;3.05;;;;;;;;;;6306253;22;20010;-91
2023/06/01 12:25:02;;;;;;;12.27;3.78;;;;;;;;;;6306478;22;20380;-91
2023/06/01 12:27:39;;;;;;;8.75;3.35;;;;;;;;;;6283208;22;20011;-91
2023/06/01 12:30:23;;;;;;;12.07;3.47;;;;;;;;;;6280796;22;20019;-92
2023/06/01 12:32:58;;;;;;;12.77;3.05;;;;;;;;;;6281603;22;20023;-92
2023/06/01 12:35:33;;;;;;;6.47;3.22;;;;;;;;;;6307168;22;20042;-92
2023/06/01 12:38:25;;;;;;;14.70;2.95;;;;;;;;;;6307582;22;20003;-92
2023/06/01 12:41:08;;;;;;;11.55;2.95;;;;;;;;;;6304106;22;20003;-91
2023/06/01 12:43:45;;;;;;;10.50;3.13;;;;;;;;;;6307179;22;20014;-91
2023/06/01 12:46:36;;;;;;;9.23;2.97;;;;;;;;;;6310011;22;20010;-92
2023/06/01 12:49:22;;;;;;;18.73;3.88;;;;;;;;;;6314375;22;20075;-92
2023/06/01 12:51:49;;;;;;;14.60;3.55;;;;;;;;;;6256321;22;20138;-90
2023/06/01 12:54:17;;;;;;;19.23;3.35;;;;;;;;;;6256370;22;20011;-92
2023/06/01 12:57:04;;;;;;;;;;;;;;;;;;;;;
2023/06/01 12:59:32;;;;;;;12.43;3.38;;;;;;;;;;6298862;22;20061;-92
2023/06/01 13:02:16;;;;;;;14.20;3.20;;;;;;;;;;6307169;22;20008;-91
2023/06/01 13:08:06;;;;;;;9.77;2.85;;;;;;;;;;6229003;23;20022;-90
2023/06/01 13:11:11;;;;;;;16.58;3.05;;;;;;;;;;6301596;22;20011;-92
2023/06/01 13:13:40;;;;;;;10.10;3.05;;;;;;;;;;6262816;22;20503;-91
2023/06/01 13:16:07;;;;;;;14.90;3.60;;;;;;;;;;6308503;22;20006;-91
2023/06/01 13:21:46;;;;;;;11.50;2.90;;;;;;;;;;6183747;23;20016;-92
2023/06/01 13:24:13;;;;;;;11.52;3.03;;;;;;;;;;6279660;22;20084;-92
2023/06/01 13:26:43;;;;;;;11.13;2.60;;;;;;;;;;6303412;22;20022;-91
2023/06/01 13:29:10;;;;;;;13.00;2.53;;;;;;;;;;6302891;22;19999;-91
2023/06/01 13:31:37;;;;;;;9.88;2.33;;;;;;;;;;6304095;22;20429;-91
2023/06/01 13:34:50;;;;;;;11.32;2.45;;;;;;;;;;6306652;22;20011;-92
2023/06/01 13:37:09;;;;;;;4.28;2.08;;;;;;;;;;6297909;22;20494;-92
2023/06/01 13:42:11;;;;;;;;;;;;;;;;;;6372740;22;20057;-92
2023/06/01 13:44:38;;;;;;;7.05;2.10;;;;;;;;;;6344531;22;19929;-91
2023/06/01 13:47:05;;;;;;;3.67;1.90;;;;;;;;;;6317749;22;20337;-91
2023/06/01 13:49:31;;;;;;;8.45;2.28;;;;;;;;;;6318224;22;20039;-91
2023/06/01 13:51:58;;;;;;;8.90;2.13;;;;;;;;;;6315376;22;20014;-92
2023/06/01 13:54:25;;;;;;;7.80;3.42;;;;;;;;;;6315967;22;20021;-91
2023/06/01 13:57:09;;;;;;;11.40;2.08;;;;;;;;;;6315976;22;20398;-92
2023/06/01 13:59:36;;;;;;;8.98;1.80;;;;;;;;;;6319779;22;20014;-91
2023/06/01 14:02:06;;;;;;;9.60;3.63;;;;;;;;;;6316851;22;20351;-91
2023/06/01 14:04:33;;;;;;;6.30;1.70;;;;;;;;;;6368654;22;20006;-91
2023/06/01 14:06:59;;;;;;;8.00;1.73;;;;;;;;;;6316682;22;20459;-91
2023/06/01 14:09:25;;;;;;;13.73;3.70;;;;;;;;;;6314756;22;20441;-92
2023/06/01 14:11:52;;;;;;;6.22;1.95;;;;;;;;;;6314822;22;20018;-92
2023/06/01 14:14:18;;;;;;;7.63;2.63;;;;;;;;;;6339636;22;20013;-92
2023/06/01 14:16:47;;;;;;;5.20;1.40;;;;;;;;;;6314939;22;20010;-91
2023/06/01 14:19:13;;;;;;;4.97;1.60;;;;;;;;;;6313880;22;20033;-91
2023/06/01 14:21:39;;;;;;;6.43;1.60;;;;;;;;;;6316086;22;20016;-92
2023/06/01 14:24:15;;;;;;;5.97;1.30;;;;;;;;;;6340791;22;20006;-92
2023/06/01 14:26:41;;;;;;;4.40;1.55;;;;;;;;;;6341643;22;20005;-91
2023/06/01 14:29:08;;;;;;;12.20;1.73;;;;;;;;;;6314459;22;20006;-92
2023/06/01 14:31:35;;;;;;;6.90;1.60;;;;;;;;;;6316207;22;20102;-91
2023/06/01 14:34:01;;;;;;;5.35;1.83;;;;;;;;;;6315740;22;20014;-91
2023/06/01 14:36:30;;;;;;;2.85;1.38;;;;;;;;;;6315292;22;20011;-91
2023/06/01 14:38:56;;;;;;;5.93;1.88;;;;;;;;;;6314912;22;20379;-91
2023/06/01 14:41:23;;;;;;;6.00;1.70;;;;;;;;;;6342001;22;20014;-91
2023/06/01 14:43:49;;;;;;;3.88;1.65;;;;;;;;;;6315706;22;20010;-92
2023/06/01 14:46:15;;;;;;;6.00;1.50;;;;;;;;;;6340579;22;20011;-92
2023/06/01 14:48:42;;;;;;;8.55;1.63;;;;;;;;;;6341497;22;20007;-92
2023/06/01 14:51:08;;;;;;;5.20;1.67;;;;;;;;;;6315330;22;20336;-92
2023/06/01 14:53:34;;;;;;;6.05;1.50;;;;;;;;;;6315547;22;20006;-91
2023/06/01 14:56:04;;;;;;;3.92;1.88;;;;;;;;;;6316718;22;20010;-92
2023/06/01 14:58:30;;;;;;;9.85;1.70;;;;;;;;;;6321114;22;20057;-91
2023/06/01 15:00:56;;;;;;;8.90;2.88;;;;;;;;;;6321322;22;20060;-91
2023/06/01 15:03:22;;;;;;;7.90;1.58;;;;;;;;;;6320946;22;20006;-90
2023/06/01 15:05:49;;;;;;;7.10;1.98;;;;;;;;;;6320487;22;20007;-91
2023/06/01 15:08:23;;;;;;;6.85;1.90;;;;;;;;;;6319976;22;20078;-92
2023/06/01 15:10:53;;;;;;;7.00;1.20;;;;;;;;;;6319818;22;20002;-92
2023/06/01 15:13:19;;;;;;;7.53;1.63;;;;;;;;;;6319407;22;20469;-92
2023/06/01 15:15:45;;;;;;;4.70;1.58;;;;;;;;;;6317972;22;20459;-91
2023/06/01 15:18:11;;;;;;;12.90;2.90;;;;;;;;;;6320203;22;20052;-91
2023/06/01 15:20:38;;;;;;;8.52;1.30;;;;;;;;;;6317946;22;20428;-90
2023/06/01 15:23:05;;;;;;;6.32;2.22;;;;;;;;;;6318138;22;20015;-91
2023/06/01 15:25:31;;;;;;;5.00;1.35;;;;;;;;;;6316480;22;20094;-91